createdAt,value
2019-02-07T00:00:33.707Z,57.04
2019-02-07T00:03:01.603Z,56.86
2019-02-07T00:05:29.365Z,57.33
2019-02-07T00:07:57.555Z,57.12
2019-02-07T00:10:25.505Z,56.66
2019-02-07T00:12:53.669Z,56.75
2019-02-07T00:15:21.423Z,56.81
2019-02-07T00:17:49.375Z,56.58
2019-02-07T00:20:17.365Z,56.85
2019-02-07T00:22:45.105Z,57.07
2019-02-07T00:25:12.971Z,56.99
2019-02-07T00:27:40.813Z,56.83
2019-02-07T00:30:11.858Z,57.36
2019-02-07T00:32:39.753Z,57.46
2019-02-07T00:35:08.757Z,57.89
2019-02-07T00:37:36.671Z,57.52
2019-02-07T00:40:08.598Z,57.48
2019-02-07T00:42:36.328Z,57.76
2019-02-07T00:45:06.087Z,58.27
2019-02-07T00:47:33.991Z,57.79
2019-02-07T00:50:01.781Z,57.86
2019-02-07T00:52:29.691Z,57.58
2019-02-07T00:54:57.470Z,58.00
2019-02-07T00:57:25.197Z,58.49
2019-02-07T00:59:53.120Z,58.46
2019-02-07T01:02:21.031Z,57.97
2019-02-07T01:04:48.779Z,58.24
2019-02-07T01:07:16.635Z,57.87
2019-02-07T01:09:44.366Z,58.45
2019-02-07T01:12:12.143Z,57.58
2019-02-07T01:14:39.906Z,57.64
2019-02-07T01:17:08.127Z,58.06
2019-02-07T01:19:35.963Z,58.00
2019-02-07T01:22:04.004Z,58.09
2019-02-07T01:24:31.733Z,57.45
2019-02-07T01:26:59.536Z,57.59
2019-02-07T01:29:27.457Z,57.21
2019-02-07T01:31:55.346Z,57.56
2019-02-07T01:34:26.636Z,57.82
2019-02-07T01:36:54.537Z,57.45
2019-02-07T01:39:22.264Z,57.26
2019-02-07T01:41:50.050Z,57.98
2019-02-07T01:44:17.947Z,58.00
2019-02-07T01:46:45.896Z,57.92
2019-02-07T01:49:13.956Z,58.08
2019-02-07T01:51:42.060Z,58.31
2019-02-07T01:54:09.840Z,57.90
2019-02-07T01:56:37.672Z,58.24
2019-02-07T01:59:05.810Z,58.04
2019-02-07T02:01:33.576Z,58.26
2019-02-07T02:04:01.297Z,58.30
2019-02-07T02:06:29.072Z,58.24
2019-02-07T02:08:57.223Z,57.48
2019-02-07T02:11:25.006Z,57.94
2019-02-07T02:13:52.753Z,57.05
2019-02-07T02:16:20.539Z,56.99
2019-02-07T02:18:48.327Z,56.24
2019-02-07T02:21:16.063Z,56.44
2019-02-07T02:23:43.978Z,56.38
2019-02-07T02:26:11.864Z,56.13
2019-02-07T02:28:39.689Z,55.67
2019-02-07T02:31:07.489Z,55.73
2019-02-07T02:33:35.361Z,55.17
2019-02-07T02:36:03.265Z,55.34
2019-02-07T02:38:31.240Z,55.17
2019-02-07T02:40:59.047Z,55.20
2019-02-07T02:43:26.811Z,55.29
2019-02-07T02:45:54.579Z,54.74
2019-02-07T02:48:22.483Z,54.85
2019-02-07T02:50:50.263Z,54.68
2019-02-07T02:53:18.209Z,54.82
2019-02-07T02:55:46.000Z,54.42
2019-02-07T02:58:13.984Z,54.54
2019-02-07T03:00:58.730Z,54.83
2019-02-07T03:03:55.102Z,55.33
2019-02-07T03:06:51.463Z,55.39
2019-02-07T03:09:37.327Z,55.72
2019-02-07T03:12:33.837Z,56.28
2019-02-07T03:15:21.214Z,56.67
2019-02-07T03:18:17.695Z,56.20
2019-02-07T03:20:57.699Z,56.60
2019-02-07T03:23:43.517Z,56.24
2019-02-07T03:26:33.825Z,56.71
2019-02-07T03:29:13.321Z,56.76
2019-02-07T03:31:59.209Z,57.70
2019-02-07T03:34:45.098Z,57.97
2019-02-07T03:37:38.606Z,58.10
2019-02-07T03:40:21.062Z,58.37
2019-02-07T03:43:02.479Z,59.59
2019-02-07T03:45:42.423Z,59.61
2019-02-07T03:48:35.932Z,59.61
2019-02-07T03:51:26.589Z,60.52
2019-02-07T03:54:13.953Z,60.13
2019-02-07T03:57:11.533Z,59.92
2019-02-07T03:59:55.967Z,60.10
2019-02-07T04:02:42.069Z,59.46
2019-02-07T04:05:28.553Z,59.31
2019-02-07T04:08:24.610Z,58.79
2019-02-07T04:11:08.475Z,58.16
2019-02-07T04:14:04.730Z,58.01
2019-02-07T04:16:57.987Z,57.93
2019-02-07T04:19:50.974Z,57.58
2019-02-07T04:22:36.735Z,57.88
2019-02-07T04:25:24.568Z,57.77
2019-02-07T04:28:03.982Z,57.35
2019-02-07T04:30:49.958Z,57.71
2019-02-07T04:33:48.878Z,57.28
2019-02-07T04:36:36.273Z,57.88
2019-02-07T04:39:25.554Z,57.90
2019-02-07T04:42:21.920Z,58.31
2019-02-07T04:45:10.396Z,57.91
2019-02-07T04:48:03.584Z,57.80
2019-02-07T04:50:50.960Z,57.61
2019-02-07T04:53:38.334Z,57.74
2019-02-07T04:56:31.587Z,57.74
2019-02-07T04:59:33.912Z,57.63
2019-02-07T05:02:20.032Z,57.57
2019-02-07T05:05:07.599Z,57.79
2019-02-07T05:08:00.828Z,58.15
2019-02-07T05:10:57.307Z,58.44
2019-02-07T05:13:56.578Z,58.66
2019-02-07T05:16:43.747Z,58.53
2019-02-07T05:19:29.921Z,58.93
2019-02-07T05:22:28.843Z,59.17
2019-02-07T05:25:14.651Z,59.36
2019-02-07T05:28:11.117Z,59.30
2019-02-07T05:31:01.221Z,58.87
2019-02-07T05:33:56.609Z,59.25
2019-02-07T05:36:46.978Z,59.32
2019-02-07T05:39:40.192Z,59.89
2019-02-07T05:42:26.168Z,60.12
2019-02-07T05:45:12.172Z,60.65
2019-02-07T05:48:03.050Z,60.75
2019-02-07T05:50:49.796Z,61.68
2019-02-07T05:53:28.162Z,61.47
2019-02-07T05:56:21.337Z,61.46
2019-02-07T05:59:06.855Z,61.65
2019-02-07T06:02:03.170Z,62.56
2019-02-07T06:04:53.939Z,63.18
2019-02-07T06:07:39.865Z,63.26
2019-02-07T06:10:47.139Z,63.57
2019-02-07T06:13:32.814Z,64.01
2019-02-07T06:16:29.230Z,64.00
2019-02-07T06:19:19.440Z,63.71
2019-02-07T06:22:19.002Z,63.45
2019-02-07T06:24:56.908Z,63.25
2019-02-07T06:27:48.235Z,62.89
2019-02-07T06:30:42.178Z,62.66
2019-02-07T06:33:41.695Z,61.99
2019-02-07T06:36:35.111Z,62.43
2019-02-07T06:39:35.873Z,61.59
2019-02-07T06:42:23.408Z,60.14
2019-02-07T06:45:10.807Z,59.53
2019-02-07T06:47:54.541Z,59.64
2019-02-07T06:50:41.943Z,59.86
2019-02-07T06:53:27.754Z,59.16
2019-02-07T06:56:25.650Z,58.90
2019-02-07T06:59:02.561Z,58.78
2019-02-07T07:01:42.503Z,59.07
2019-02-07T07:04:30.091Z,58.91
2019-02-07T07:07:29.288Z,58.56
2019-02-07T07:10:15.174Z,58.06
2019-02-07T07:13:05.646Z,57.66
2019-02-07T07:15:55.793Z,57.45
2019-02-07T07:18:51.621Z,57.00
2019-02-07T07:21:38.998Z,57.25
2019-02-07T07:24:25.083Z,56.48
2019-02-07T07:27:18.614Z,56.79
2019-02-07T07:30:11.904Z,56.80
2019-02-07T07:33:00.744Z,56.61
2019-02-07T07:35:46.588Z,56.19
2019-02-07T07:38:22.223Z,56.68
2019-02-07T07:41:07.973Z,56.63
2019-02-07T07:43:54.059Z,56.56
2019-02-07T07:46:40.054Z,56.04
2019-02-07T07:49:26.181Z,56.55
2019-02-07T07:52:12.290Z,56.23
2019-02-07T07:54:58.306Z,56.60
2019-02-07T07:57:34.427Z,56.88
2019-02-07T08:00:14.081Z,57.00
2019-02-07T08:03:16.618Z,57.02
2019-02-07T08:06:12.568Z,56.95
2019-02-07T08:08:58.532Z,56.77
2019-02-07T08:11:33.484Z,57.03
2019-02-07T08:14:24.004Z,57.26
2019-02-07T08:17:23.275Z,57.35
2019-02-07T08:20:09.254Z,57.15
2019-02-07T08:22:56.677Z,56.38
2019-02-07T08:25:56.256Z,56.45
2019-02-07T08:28:32.271Z,56.45
2019-02-07T08:31:17.065Z,54.77
2019-02-07T08:34:16.363Z,55.31
2019-02-07T08:37:01.513Z,55.02
2019-02-07T08:39:46.068Z,55.27
2019-02-07T08:42:33.833Z,54.84
2019-02-07T08:45:19.933Z,54.08
2019-02-07T08:48:05.420Z,54.04
2019-02-07T08:50:55.938Z,54.01
2019-02-07T08:53:54.859Z,54.24
2019-02-07T08:56:54.160Z,53.60
2019-02-07T08:59:40.077Z,53.06
2019-02-07T09:02:24.924Z,52.77
2019-02-07T09:05:00.299Z,53.04
2019-02-07T09:07:59.209Z,52.95
2019-02-07T09:10:49.374Z,52.75
2019-02-07T09:13:27.860Z,53.03
2019-02-07T09:16:13.104Z,52.55
2019-02-07T09:18:59.093Z,51.92
2019-02-07T09:21:45.292Z,52.13
2019-02-07T09:24:44.864Z,52.02
2019-02-07T09:27:38.366Z,52.74
2019-02-07T09:30:28.266Z,52.31
2019-02-07T09:33:13.876Z,51.96
2019-02-07T09:36:09.932Z,51.88
2019-02-07T09:39:11.174Z,51.39
2019-02-07T09:41:58.562Z,50.72
2019-02-07T09:45:03.529Z,50.50
2019-02-07T09:47:50.938Z,50.02
2019-02-07T09:50:50.456Z,49.36
2019-02-07T09:53:36.213Z,49.41
2019-02-07T09:56:22.451Z,49.11
2019-02-07T09:59:03.335Z,48.85
2019-02-07T10:01:43.369Z,48.95
2019-02-07T10:04:30.771Z,49.27
2019-02-07T10:07:18.701Z,48.26
2019-02-07T10:10:00.330Z,47.49
2019-02-07T10:12:46.019Z,48.93
2019-02-07T10:15:48.502Z,49.13
2019-02-07T10:18:33.076Z,49.20
2019-02-07T10:21:11.009Z,49.02
2019-02-07T10:23:58.038Z,46.92
2019-02-07T10:26:49.787Z,46.79
2019-02-07T10:29:43.052Z,47.06
2019-02-07T10:32:26.292Z,47.97
2019-02-07T10:35:22.881Z,47.56
2019-02-07T10:38:14.937Z,48.20
2019-02-07T10:41:00.523Z,49.31
2019-02-07T10:43:47.849Z,48.65
2019-02-07T10:46:31.003Z,49.62
2019-02-07T10:49:18.571Z,48.90
2019-02-07T10:52:08.694Z,45.67
2019-02-07T10:54:46.572Z,43.87
2019-02-07T10:57:32.343Z,46.47
2019-02-07T11:00:22.880Z,48.48
2019-02-07T11:03:14.312Z,50.20
2019-02-07T11:06:00.063Z,51.59
2019-02-07T11:08:46.163Z,51.78
2019-02-07T11:11:22.600Z,51.32
2019-02-07T11:14:13.711Z,51.05
2019-02-07T11:16:51.636Z,51.69
2019-02-07T11:19:36.428Z,52.51
2019-02-07T11:22:36.181Z,53.01
2019-02-07T11:25:36.760Z,52.65
2019-02-07T11:28:30.217Z,53.44
2019-02-07T11:31:17.571Z,53.30
2019-02-07T11:34:11.044Z,54.43
2019-02-07T11:37:04.288Z,53.88
2019-02-07T11:39:46.130Z,53.83
2019-02-07T11:42:31.555Z,54.12
2019-02-07T11:45:17.754Z,54.09
2019-02-07T11:48:05.124Z,53.63
2019-02-07T11:50:51.147Z,52.65
2019-02-07T11:53:32.937Z,53.52
2019-02-07T11:56:32.206Z,53.66
2019-02-07T11:59:31.330Z,53.31
2019-02-07T12:02:18.708Z,53.56
2019-02-07T12:05:17.306Z,53.51
2019-02-07T12:07:58.422Z,53.72
2019-02-07T12:10:44.252Z,52.24
2019-02-07T12:13:31.620Z,51.35
2019-02-07T12:16:34.207Z,50.86
2019-02-07T12:19:21.605Z,51.28
2019-02-07T12:22:03.241Z,50.62
2019-02-07T12:24:49.456Z,50.06
2019-02-07T12:27:34.942Z,49.27
2019-02-07T12:30:30.895Z,51.17
2019-02-07T12:33:21.262Z,50.76
2019-02-07T12:36:17.657Z,50.34
2019-02-07T12:39:05.754Z,50.95
2019-02-07T12:41:51.831Z,49.99
2019-02-07T12:44:40.241Z,51.60
2019-02-07T12:47:34.510Z,50.78
2019-02-07T12:50:33.798Z,50.94
2019-02-07T12:53:18.737Z,52.79
2019-02-07T12:56:12.277Z,53.88
2019-02-07T12:58:57.970Z,52.83
2019-02-07T13:01:41.254Z,53.63
2019-02-07T13:04:38.022Z,53.37
2019-02-07T13:07:25.215Z,53.61
2019-02-07T13:10:11.435Z,55.51
2019-02-07T13:12:56.841Z,55.99
2019-02-07T13:15:56.151Z,58.53
2019-02-07T13:18:50.906Z,60.45
2019-02-07T13:21:41.250Z,60.84
2019-02-07T13:24:31.488Z,60.64
2019-02-07T13:27:37.497Z,60.30
2019-02-07T13:30:28.656Z,59.77
2019-02-07T13:33:14.454Z,59.73
2019-02-07T13:36:00.544Z,59.61
2019-02-07T13:39:06.366Z,58.93
2019-02-07T13:42:05.787Z,58.41
2019-02-07T13:45:05.221Z,58.49
2019-02-07T13:47:58.404Z,58.86
2019-02-07T13:50:36.888Z,58.05
2019-02-07T13:53:15.938Z,57.63
2019-02-07T13:56:03.360Z,57.05
2019-02-07T13:58:42.044Z,58.26
2019-02-07T14:01:30.344Z,58.75
2019-02-07T14:04:17.792Z,59.26
2019-02-07T14:07:03.786Z,59.62
2019-02-07T14:09:49.388Z,60.12
2019-02-07T14:12:28.370Z,59.24
2019-02-07T14:15:07.361Z,60.50
2019-02-07T14:17:57.284Z,60.29
2019-02-07T14:20:54.211Z,60.80
2019-02-07T14:23:44.373Z,61.67
2019-02-07T14:26:32.402Z,60.85
2019-02-07T14:29:22.928Z,61.56
2019-02-07T14:32:10.347Z,61.91
2019-02-07T14:34:51.243Z,61.70
2019-02-07T14:37:28.607Z,62.10
2019-02-07T14:40:11.135Z,62.13
2019-02-07T14:42:47.185Z,61.70
2019-02-07T14:45:33.101Z,62.11
2019-02-07T14:48:01.193Z,62.65
2019-02-07T14:50:28.995Z,63.09
2019-02-07T14:52:56.824Z,63.23
2019-02-07T14:55:24.834Z,62.27
2019-02-07T14:57:52.563Z,62.13
2019-02-07T15:00:22.755Z,62.34
2019-02-07T15:02:50.663Z,62.45
2019-02-07T15:05:18.417Z,63.13
2019-02-07T15:07:46.233Z,63.48
2019-02-07T15:10:16.509Z,64.24
2019-02-07T15:12:44.406Z,64.90
2019-02-07T15:15:13.809Z,64.44
2019-02-07T15:17:41.559Z,64.78
2019-02-07T15:20:09.915Z,64.80
2019-02-07T15:22:37.685Z,65.27
2019-02-07T15:25:06.079Z,64.67
2019-02-07T15:27:34.164Z,64.28
2019-02-07T15:30:02.071Z,64.03
2019-02-07T15:32:30.062Z,64.34
2019-02-07T15:34:57.852Z,64.40
2019-02-07T15:37:25.577Z,64.76
2019-02-07T15:39:53.405Z,64.79
2019-02-07T15:42:21.381Z,65.63
2019-02-07T15:44:49.466Z,64.98
2019-02-07T15:47:17.184Z,67.11
2019-02-07T15:49:45.291Z,66.74
2019-02-07T15:52:13.873Z,67.48
2019-02-07T15:54:41.881Z,67.98
2019-02-07T15:57:09.636Z,67.84
2019-02-07T15:59:50.443Z,67.95
2019-02-07T16:02:28.009Z,68.89
2019-02-07T16:04:56.081Z,69.09
2019-02-07T16:07:23.870Z,68.66
2019-02-07T16:09:51.836Z,69.21
2019-02-07T16:12:19.703Z,69.54
2019-02-07T16:14:47.754Z,69.88
2019-02-07T16:17:15.528Z,69.48
2019-02-07T16:19:43.284Z,69.04
2019-02-07T16:22:11.250Z,69.30
2019-02-07T16:24:39.085Z,69.53
2019-02-07T16:27:06.878Z,69.72
2019-02-07T16:29:35.195Z,70.27
2019-02-07T16:32:04.397Z,70.52
2019-02-07T16:34:32.359Z,70.66
2019-02-07T16:37:00.159Z,70.73
2019-02-07T16:39:27.957Z,70.43
2019-02-07T16:42:05.759Z,70.71
2019-02-07T16:44:25.685Z,71.78
2019-02-07T16:46:54.531Z,72.33
2019-02-07T16:49:22.552Z,72.14
2019-02-07T16:51:50.303Z,72.62
2019-02-07T16:54:18.093Z,72.92
2019-02-07T16:56:45.897Z,73.51
2019-02-07T16:59:13.961Z,73.68
2019-02-07T17:01:41.998Z,73.78
2019-02-07T17:04:09.871Z,74.00
2019-02-07T17:06:37.613Z,73.80
2019-02-07T17:09:18.636Z,74.50
2019-02-07T17:11:51.414Z,74.58
2019-02-07T17:14:19.183Z,73.75
2019-02-07T17:16:47.067Z,73.65
2019-02-07T17:19:14.970Z,73.75
2019-02-07T17:21:42.932Z,73.34
2019-02-07T17:24:10.988Z,73.81
2019-02-07T17:26:38.788Z,73.90
2019-02-07T17:29:06.928Z,73.81
2019-02-07T17:31:34.769Z,74.41
2019-02-07T17:34:02.542Z,74.15
2019-02-07T17:36:30.413Z,73.66
2019-02-07T17:38:58.262Z,74.16
2019-02-07T17:41:26.180Z,74.47
2019-02-07T17:43:53.950Z,74.70
2019-02-07T17:46:21.762Z,75.10
2019-02-07T17:48:49.549Z,75.25
2019-02-07T17:51:23.391Z,75.52
2019-02-07T17:53:47.084Z,76.03
2019-02-07T17:56:14.850Z,76.32
2019-02-07T17:58:42.660Z,76.05
2019-02-07T18:01:10.861Z,75.97
2019-02-07T18:03:38.608Z,76.10
2019-02-07T18:06:08.889Z,76.32
2019-02-07T18:08:36.750Z,76.45
2019-02-07T18:11:05.906Z,76.28
2019-02-07T18:13:34.013Z,76.44
2019-02-07T18:16:01.807Z,76.26
2019-02-07T18:18:29.615Z,76.57
2019-02-07T18:20:57.379Z,76.36
2019-02-07T18:23:25.467Z,76.23
2019-02-07T18:25:53.372Z,76.58
2019-02-07T18:28:21.155Z,76.67
2019-02-07T18:30:48.959Z,76.92
2019-02-07T18:33:16.801Z,77.20
2019-02-07T18:35:44.560Z,77.42
2019-02-07T18:38:12.334Z,77.52
2019-02-07T18:40:40.423Z,77.52
2019-02-07T18:43:08.243Z,77.86
2019-02-07T18:45:36.469Z,78.38
2019-02-07T18:48:04.349Z,78.41
2019-02-07T18:50:34.536Z,78.32
2019-02-07T18:53:03.274Z,79.21
2019-02-07T18:55:31.120Z,79.75
2019-02-07T18:57:59.421Z,79.60
2019-02-07T19:00:29.883Z,79.68
2019-02-07T19:02:57.703Z,79.92
2019-02-07T19:05:25.593Z,80.33
2019-02-07T19:07:53.467Z,79.63
2019-02-07T19:10:22.474Z,79.63
2019-02-07T19:12:50.328Z,79.85
2019-02-07T19:15:28.327Z,79.78
2019-02-07T19:17:56.090Z,79.98
2019-02-07T19:20:23.878Z,80.22
2019-02-07T19:22:51.699Z,79.80
2019-02-07T19:25:19.665Z,80.25
2019-02-07T19:27:47.493Z,79.94
2019-02-07T19:30:20.574Z,79.74
2019-02-07T19:32:48.376Z,79.97
2019-02-07T19:35:16.152Z,79.49
2019-02-07T19:37:43.966Z,79.83
2019-02-07T19:40:12.356Z,80.02
2019-02-07T19:42:40.198Z,80.11
2019-02-07T19:45:09.516Z,80.19
2019-02-07T19:47:37.284Z,79.55
2019-02-07T19:50:09.939Z,79.91
2019-02-07T19:52:39.658Z,79.67
2019-02-07T19:55:11.559Z,79.95
2019-02-07T19:57:39.354Z,80.18
2019-02-07T20:00:11.913Z,80.19
2019-02-07T20:02:40.048Z,79.43
2019-02-07T20:05:09.126Z,79.00
2019-02-07T20:07:36.989Z,79.12
2019-02-07T20:10:08.369Z,78.38
2019-02-07T20:12:36.147Z,78.67
2019-02-07T20:15:13.402Z,78.53
2019-02-07T20:17:41.195Z,78.78
2019-02-07T20:20:09.478Z,78.98
2019-02-07T20:22:37.376Z,79.17
2019-02-07T20:25:06.119Z,79.89
2019-02-07T20:27:33.973Z,80.12
2019-02-07T20:30:01.733Z,79.90
2019-02-07T20:32:29.528Z,80.16
2019-02-07T20:34:57.599Z,80.44
2019-02-07T20:37:25.391Z,79.78
2019-02-07T20:39:54.024Z,78.77
2019-02-07T20:42:21.821Z,79.06
2019-02-07T20:44:49.618Z,79.01
2019-02-07T20:47:17.419Z,79.12
2019-02-07T20:49:45.221Z,78.40
2019-02-07T20:52:13.052Z,77.84
2019-02-07T20:54:40.918Z,78.33
2019-02-07T20:57:08.705Z,79.13
2019-02-07T20:59:36.585Z,78.84
2019-02-07T21:02:04.537Z,78.64
2019-02-07T21:04:32.321Z,78.16
2019-02-07T21:07:00.085Z,77.92
2019-02-07T21:09:27.898Z,78.33
2019-02-07T21:11:56.109Z,78.59
2019-02-07T21:14:23.916Z,78.29
2019-02-07T21:16:51.668Z,78.16
2019-02-07T21:19:19.465Z,78.86
2019-02-07T21:21:47.257Z,79.04
2019-02-07T21:24:15.047Z,78.67
2019-02-07T21:26:42.835Z,77.91
2019-02-07T21:29:10.622Z,78.71
2019-02-07T21:31:38.696Z,78.49
2019-02-07T21:34:06.512Z,78.90
2019-02-07T21:36:34.279Z,78.49
2019-02-07T21:39:04.134Z,78.37
2019-02-07T21:41:31.889Z,78.40
2019-02-07T21:43:59.673Z,78.75
2019-02-07T21:46:27.451Z,79.25
2019-02-07T21:48:55.260Z,78.84
2019-02-07T21:51:23.014Z,79.32
2019-02-07T21:53:50.790Z,79.36
2019-02-07T21:56:18.560Z,79.70
2019-02-07T21:58:46.358Z,79.58
2019-02-07T22:01:14.178Z,79.65
2019-02-07T22:03:41.986Z,79.57
2019-02-07T22:06:09.780Z,79.74
2019-02-07T22:08:37.743Z,79.72
2019-02-07T22:11:05.586Z,79.73
2019-02-07T22:13:33.364Z,79.36
2019-02-07T22:16:01.172Z,79.34
2019-02-07T22:18:28.932Z,79.52
2019-02-07T22:20:56.699Z,79.12
2019-02-07T22:23:24.460Z,79.17
2019-02-07T22:25:52.479Z,79.53
2019-02-07T22:28:20.213Z,79.95
2019-02-07T22:30:47.973Z,79.80
2019-02-07T22:33:15.744Z,79.41
2019-02-07T22:35:43.496Z,79.73
2019-02-07T22:38:11.443Z,79.89
2019-02-07T22:40:39.251Z,80.11
2019-02-07T22:43:07.364Z,80.19
2019-02-07T22:45:35.127Z,80.35
2019-02-07T22:48:03.015Z,80.34
2019-02-07T22:50:30.883Z,80.77
2019-02-07T22:52:59.738Z,80.33
2019-02-07T22:55:27.791Z,80.18
2019-02-07T22:57:55.687Z,80.02
2019-02-07T23:01:27.461Z,80.54
2019-02-07T23:04:05.749Z,80.41
2019-02-07T23:06:33.675Z,79.89
2019-02-07T23:09:01.425Z,80.03
2019-02-07T23:11:31.969Z,79.52
2019-02-07T23:13:59.726Z,79.52
2019-02-07T23:16:27.865Z,79.46
2019-02-07T23:18:55.697Z,80.21
2019-02-07T23:21:23.444Z,79.51
2019-02-07T23:23:51.226Z,79.87
2019-02-07T23:26:18.983Z,79.44
2019-02-07T23:28:46.737Z,79.66
2019-02-07T23:31:14.655Z,79.88
2019-02-07T23:33:42.821Z,79.77
2019-02-07T23:36:10.761Z,79.35
2019-02-07T23:38:38.672Z,79.54
2019-02-07T23:41:08.083Z,79.44
2019-02-07T23:43:36.399Z,79.53
2019-02-07T23:46:04.708Z,79.61
2019-02-07T23:48:32.699Z,79.93
2019-02-07T23:51:01.002Z,80.09
2019-02-07T23:53:28.797Z,79.97
2019-02-07T23:55:56.706Z,79.04
2019-02-07T23:58:24.504Z,79.77
